Time,TemperatureF,DewpointF,PressureIn,WindDirection,WindDirectionDegrees,WindSpeedMPH,WindSpeedGustMPH,Humidity,HourlyPrecipIn,Conditions,Clouds,dailyrainin,SoftwareType,DateUTC
2013-08-08 00:08:00,78.8,74.3,29.78,NNE,32,1.8,4.9,86,-99.99,,,-99.99,PyWeather,2013-08-07 22:08:00,
2013-08-08 00:18:00,78.8,74.7,29.78,NNE,28,2.9,4.9,87,-99.99,,,-99.99,PyWeather,2013-08-07 22:18:00,
2013-08-08 00:27:00,78.8,74.7,29.78,NNE,14,2.7,4.9,87,-99.99,,,-99.99,PyWeather,2013-08-07 22:27:00,
2013-08-08 00:37:00,78.8,75.0,29.78,NNE,18,2.0,4.0,88,-99.99,,,-99.99,PyWeather,2013-08-07 22:37:00,
2013-08-08 00:47:00,78.6,74.8,29.78,NNE,18,0.7,2.9,88,-99.99,,,-99.99,PyWeather,2013-08-07 22:47:00,
2013-08-08 00:57:00,78.3,74.1,29.78,ESE,121,0.9,2.0,87,-99.99,,,-99.99,PyWeather,2013-08-07 22:57:00,
2013-08-08 01:06:00,78.3,74.5,29.78,SE,124,0.7,2.9,88,-99.99,,,-99.99,PyWeather,2013-08-07 23:06:00,
2013-08-08 01:16:00,78.3,74.5,29.78,ESE,121,0.9,2.9,88,-99.99,,,-99.99,PyWeather,2013-08-07 23:16:00,
2013-08-08 01:26:00,77.9,74.1,29.78,ESE,122,0.4,2.0,88,-99.99,,,-99.99,PyWeather,2013-08-07 23:26:00,
2013-08-08 01:36:00,78.1,74.3,29.78,SSW,204,1.6,2.9,88,-99.99,,,-99.99,PyWeather,2013-08-07 23:36:00,
2013-08-08 01:46:00,77.7,73.9,29.78,SW,229,1.6,2.0,88,-99.99,,,-99.99,PyWeather,2013-08-07 23:46:00,
2013-08-08 01:56:00,77.5,74.1,29.77,SW,229,0.9,2.9,89,-99.99,,,-99.99,PyWeather,2013-08-07 23:56:00,
2013-08-08 02:05:00,77.7,74.3,29.77,SW,217,0.2,2.0,89,-99.99,,,-99.99,PyWeather,2013-08-08 00:05:00,
2013-08-08 02:15:00,77.7,74.3,29.76,SW,225,2.0,4.0,89,-99.99,,,-99.99,PyWeather,2013-08-08 00:15:00,
2013-08-08 02:25:00,77.2,73.8,29.76,SW,229,1.1,4.0,89,-99.99,,,-99.99,PyWeather,2013-08-08 00:25:00,
2013-08-08 02:35:00,77.0,73.6,29.76,SW,216,0.2,0.9,89,-99.99,,,-99.99,PyWeather,2013-08-08 00:35:00,
2013-08-08 02:45:00,77.0,73.6,29.76,SW,229,-999.0,0.9,89,-99.99,,,-99.99,PyWeather,2013-08-08 00:45:00,
2013-08-08 02:54:00,77.2,73.8,29.76,SSW,199,1.1,2.9,89,-99.99,,,-99.99,PyWeather,2013-08-08 00:54:00,
2013-08-08 03:04:00,77.4,73.9,29.76,SW,233,0.9,2.9,89,-99.99,,,-99.99,PyWeather,2013-08-08 01:04:00,
2013-08-08 03:14:00,77.4,73.6,29.76,West,266,1.8,2.9,88,-99.99,,,-99.99,PyWeather,2013-08-08 01:14:00,
2013-08-08 03:24:00,77.4,73.9,29.76,WSW,256,0.4,2.0,89,-99.99,,,-99.99,PyWeather,2013-08-08 01:24:00,
2013-08-08 03:34:00,77.2,73.8,29.75,West,267,1.1,2.9,89,-99.99,,,-99.99,PyWeather,2013-08-08 01:34:00,
2013-08-08 03:43:00,77.2,73.8,29.75,West,272,2.0,2.9,89,-99.99,,,-99.99,PyWeather,2013-08-08 01:43:00,
2013-08-08 03:53:00,77.2,73.8,29.75,West,274,0.9,2.9,89,-99.99,,,-99.99,PyWeather,2013-08-08 01:53:00,
2013-08-08 04:03:00,77.0,73.6,29.75,West,262,1.3,2.9,89,-99.99,,,-99.99,PyWeather,2013-08-08 02:03:00,
2013-08-08 04:13:00,76.8,73.4,29.75,NW,307,2.5,4.0,89,-99.99,,,-99.99,PyWeather,2013-08-08 02:13:00,
2013-08-08 04:23:00,77.0,73.8,29.76,NW,319,3.1,7.0,90,-99.99,,,-99.99,PyWeather,2013-08-08 02:23:00,
2013-08-08 04:32:00,77.2,73.9,29.76,NNW,328,1.6,4.0,90,-99.99,,,-99.99,PyWeather,2013-08-08 02:32:00,
2013-08-08 04:42:00,77.4,74.5,29.76,NNW,339,2.9,4.9,91,-99.99,,,-99.99,PyWeather,2013-08-08 02:42:00,
2013-08-08 04:52:00,77.5,74.3,29.77,NNW,328,2.5,4.9,90,-99.99,,,-99.99,PyWeather,2013-08-08 02:52:00,
2013-08-08 05:02:00,75.2,70.3,29.78,North,1,10.1,19.1,85,-99.99,,,-99.99,PyWeather,2013-08-08 03:02:00,
2013-08-08 05:12:00,73.9,68.7,29.77,North,1,10.1,20.0,84,-99.99,,,-99.99,PyWeather,2013-08-08 03:12:00,
2013-08-08 05:21:00,73.0,68.2,29.77,NNE,17,12.3,20.0,85,-99.99,,,-99.99,PyWeather,2013-08-08 03:21:00,
2013-08-08 05:31:00,72.3,67.8,29.78,NNE,13,12.3,22.9,86,-99.99,,,-99.99,PyWeather,2013-08-08 03:31:00,
2013-08-08 05:41:00,71.8,67.3,29.78,North,8,10.8,20.0,86,-99.99,,,-99.99,PyWeather,2013-08-08 03:41:00,
2013-08-08 05:51:00,71.6,67.1,29.78,North,1,11.7,19.1,86,-99.99,,,-99.99,PyWeather,2013-08-08 03:51:00,
2013-08-08 06:01:00,71.4,67.1,29.78,North,6,9.2,15.9,86,-99.99,,,-99.99,PyWeather,2013-08-08 04:01:00,
2013-08-08 06:10:00,71.6,66.6,29.79,North,4,9.9,19.1,84,-99.99,,,-99.99,PyWeather,2013-08-08 04:10:00,
2013-08-08 06:20:00,71.8,66.0,29.79,North,5,9.7,15.0,82,-99.99,,,-99.99,PyWeather,2013-08-08 04:20:00,
2013-08-08 06:25:00,72.0,65.8,29.79,NNE,18,11.4,19.1,81,-99.99,,,-99.99,PyWeather,2013-08-08 04:25:00,
2013-08-08 06:35:00,72.0,65.8,29.79,NNE,16,11.7,18.0,81,-99.99,,,-99.99,PyWeather,2013-08-08 04:35:00,
2013-08-08 06:45:00,72.0,65.5,29.80,NNE,14,8.8,20.0,80,-99.99,,,-99.99,PyWeather,2013-08-08 04:45:00,
2013-08-08 06:54:00,72.0,65.5,29.80,North,3,12.3,20.0,80,-99.99,,,-99.99,PyWeather,2013-08-08 04:54:00,
2013-08-08 07:04:00,71.8,65.3,29.80,North,8,9.9,20.0,80,-99.99,,,-99.99,PyWeather,2013-08-08 05:04:00,
2013-08-08 07:14:00,71.6,65.1,29.81,North,9,10.5,21.1,80,-99.99,,,-99.99,PyWeather,2013-08-08 05:14:00,
2013-08-08 07:24:00,71.6,65.1,29.81,North,1,10.5,21.1,80,-99.99,,,-99.99,PyWeather,2013-08-08 05:24:00,
2013-08-08 07:34:00,71.6,65.5,29.81,North,9,8.8,15.9,81,-99.99,,,-99.99,PyWeather,2013-08-08 05:34:00,
2013-08-08 07:43:00,71.8,65.7,29.82,North,9,8.3,13.0,81,-99.99,,,-99.99,PyWeather,2013-08-08 05:43:00,
2013-08-08 07:53:00,72.0,65.8,29.82,North,10,7.9,15.9,81,-99.99,,,-99.99,PyWeather,2013-08-08 05:53:00,
2013-08-08 08:03:00,72.1,66.7,29.83,NNE,21,8.3,15.0,83,-99.99,,,-99.99,PyWeather,2013-08-08 06:03:00,
2013-08-08 08:13:00,72.1,66.7,29.83,NNE,16,9.0,15.0,83,-99.99,,,-99.99,PyWeather,2013-08-08 06:13:00,
2013-08-08 08:23:00,72.3,66.9,29.83,NNE,12,6.5,11.9,83,-99.99,,,-99.99,PyWeather,2013-08-08 06:23:00,
2013-08-08 08:32:00,72.5,67.1,29.84,NNE,20,5.4,10.1,83,-99.99,,,-99.99,PyWeather,2013-08-08 06:32:00,
2013-08-08 08:42:00,73.0,67.6,29.84,NNE,28,7.9,11.9,83,-99.99,,,-99.99,PyWeather,2013-08-08 06:42:00,
2013-08-08 08:52:00,73.9,67.8,29.85,NNE,18,6.1,11.9,81,-99.99,,,-99.99,PyWeather,2013-08-08 06:52:00,
2013-08-08 09:02:00,74.5,67.8,29.85,NNE,22,7.9,13.9,80,-99.99,,,-99.99,PyWeather,2013-08-08 07:02:00,
2013-08-08 09:12:00,74.8,68.2,29.86,NNE,27,8.8,15.0,80,-99.99,,,-99.99,PyWeather,2013-08-08 07:12:00,
2013-08-08 09:21:00,75.4,67.6,29.86,North,10,7.6,15.9,77,-99.99,,,-99.99,PyWeather,2013-08-08 07:21:00,
2013-08-08 09:31:00,76.1,67.6,29.87,NNE,19,7.4,13.9,75,-99.99,,,-99.99,PyWeather,2013-08-08 07:31:00,
2013-08-08 09:41:00,76.8,67.5,29.87,NNE,15,8.1,15.9,73,-99.99,,,-99.99,PyWeather,2013-08-08 07:41:00,
2013-08-08 09:51:00,77.0,66.9,29.88,North,10,8.3,13.9,71,-99.99,,,-99.99,PyWeather,2013-08-08 07:51:00,
2013-08-08 10:01:00,76.8,66.4,29.88,NNE,26,8.8,15.0,70,-99.99,,,-99.99,PyWeather,2013-08-08 08:01:00,
2013-08-08 10:10:00,76.6,66.6,29.88,NNE,24,8.8,13.0,71,-99.99,,,-99.99,PyWeather,2013-08-08 08:10:00,
2013-08-08 10:20:00,77.0,67.3,29.88,NNE,23,6.5,11.9,72,-99.99,,,-99.99,PyWeather,2013-08-08 08:20:00,
2013-08-08 10:30:00,77.5,66.9,29.89,North,1,6.5,10.1,70,-99.99,,,-99.99,PyWeather,2013-08-08 08:30:00,
2013-08-08 10:40:00,77.9,66.6,29.88,NNE,31,7.9,11.9,68,-99.99,,,-99.99,PyWeather,2013-08-08 08:40:00,
2013-08-08 10:50:00,78.4,66.9,29.89,NNE,27,6.1,13.9,68,-99.99,,,-99.99,PyWeather,2013-08-08 08:50:00,
2013-08-08 10:59:00,78.6,65.8,29.90,North,4,7.2,13.9,65,-99.99,,,-99.99,PyWeather,2013-08-08 08:59:00,
2013-08-08 11:09:00,78.8,66.6,29.90,North,7,7.4,11.9,66,-99.99,,,-99.99,PyWeather,2013-08-08 09:09:00,
2013-08-08 11:19:00,78.6,65.8,29.90,NNE,29,8.1,15.0,65,-99.99,,,-99.99,PyWeather,2013-08-08 09:19:00,
2013-08-08 11:29:00,79.0,64.8,29.90,North,356,7.6,13.9,62,-99.99,,,-99.99,PyWeather,2013-08-08 09:29:00,
2013-08-08 11:39:00,79.3,64.2,29.90,NNE,29,9.7,15.9,60,-99.99,,,-99.99,PyWeather,2013-08-08 09:39:00,
2013-08-08 11:48:00,79.9,64.8,29.91,North,6,8.3,13.9,60,-99.99,,,-99.99,PyWeather,2013-08-08 09:48:00,
2013-08-08 11:58:00,79.7,64.0,29.91,NNE,29,9.7,15.9,59,-99.99,,,-99.99,PyWeather,2013-08-08 09:58:00,
2013-08-08 12:08:00,79.9,64.2,29.91,NNE,14,8.1,15.9,59,-99.99,,,-99.99,PyWeather,2013-08-08 10:08:00,
2013-08-08 12:18:00,80.6,64.4,29.91,North,10,6.7,11.9,58,-99.99,,,-99.99,PyWeather,2013-08-08 10:18:00,
2013-08-08 12:28:00,80.6,64.0,29.92,North,9,8.8,19.1,57,-99.99,,,-99.99,PyWeather,2013-08-08 10:28:00,
2013-08-08 12:37:00,79.9,64.2,29.92,NNE,24,8.5,15.0,59,-99.99,,,-99.99,PyWeather,2013-08-08 10:37:00,
2013-08-08 12:47:00,80.2,64.0,29.92,NNE,24,8.8,15.9,58,-99.99,,,-99.99,PyWeather,2013-08-08 10:47:00,
2013-08-08 12:57:00,80.4,63.9,29.92,NNE,15,8.1,13.0,57,-99.99,,,-99.99,PyWeather,2013-08-08 10:57:00,
2013-08-08 13:07:00,80.6,64.0,29.92,NE,38,9.0,19.1,57,-99.99,,,-99.99,PyWeather,2013-08-08 11:07:00,
2013-08-08 13:17:00,81.0,64.2,29.93,NNE,20,6.3,11.9,57,-99.99,,,-99.99,PyWeather,2013-08-08 11:17:00,
2013-08-08 13:26:00,81.3,63.7,29.93,NNE,17,9.0,17.1,55,-99.99,,,-99.99,PyWeather,2013-08-08 11:26:00,
2013-08-08 13:36:00,80.8,63.7,29.93,NNE,21,9.0,15.9,56,-99.99,,,-99.99,PyWeather,2013-08-08 11:36:00,
2013-08-08 13:46:00,81.0,63.3,29.93,NE,34,8.8,15.0,55,-99.99,,,-99.99,PyWeather,2013-08-08 11:46:00,
2013-08-08 13:56:00,80.8,63.1,29.93,North,5,7.6,15.0,55,-99.99,,,-99.99,PyWeather,2013-08-08 11:56:00,
2013-08-08 14:05:00,81.1,61.9,29.94,NNE,31,10.3,19.1,52,-99.99,,,-99.99,PyWeather,2013-08-08 12:05:00,
2013-08-08 14:15:00,80.2,64.6,29.94,NNE,27,11.2,22.9,59,-99.99,,,-99.99,PyWeather,2013-08-08 12:15:00,
2013-08-08 14:25:00,80.2,64.0,29.94,NNE,22,11.2,20.0,58,-99.99,,,-99.99,PyWeather,2013-08-08 12:25:00,
2013-08-08 14:35:00,80.1,65.8,29.95,NNE,24,12.6,20.0,62,-99.99,,,-99.99,PyWeather,2013-08-08 12:35:00,
2013-08-08 14:45:00,77.5,65.3,29.96,North,360,15.3,28.1,66,-99.99,,,-99.99,PyWeather,2013-08-08 12:45:00,
2013-08-08 14:54:00,76.1,64.8,29.96,North,3,13.2,19.1,68,-99.99,,,-99.99,PyWeather,2013-08-08 12:54:00,
2013-08-08 15:04:00,76.6,65.7,29.96,NNE,18,10.8,20.0,69,-99.99,,,-99.99,PyWeather,2013-08-08 13:04:00,
2013-08-08 15:14:00,77.9,64.8,29.96,North,9,9.4,17.1,64,-99.99,,,-99.99,PyWeather,2013-08-08 13:14:00,
2013-08-08 15:24:00,78.6,64.0,29.96,North,6,11.0,21.1,61,-99.99,,,-99.99,PyWeather,2013-08-08 13:24:00,
2013-08-08 15:34:00,78.4,64.8,29.96,NNW,342,10.5,18.0,63,-99.99,,,-99.99,PyWeather,2013-08-08 13:34:00,
2013-08-08 15:43:00,78.6,64.9,29.96,North,2,10.8,20.0,63,-99.99,,,-99.99,PyWeather,2013-08-08 13:43:00,
2013-08-08 15:53:00,78.1,64.4,29.96,NNE,14,10.3,17.1,63,-99.99,,,-99.99,PyWeather,2013-08-08 13:53:00,
2013-08-08 16:03:00,78.8,63.7,29.96,NNE,21,11.9,17.1,60,-99.99,,,-99.99,PyWeather,2013-08-08 14:03:00,
2013-08-08 16:13:00,78.6,64.0,29.97,North,6,10.5,18.0,61,-99.99,,,-99.99,PyWeather,2013-08-08 14:13:00,
2013-08-08 16:23:00,78.4,63.0,29.97,NNE,12,11.0,19.1,59,-99.99,,,-99.99,PyWeather,2013-08-08 14:23:00,
2013-08-08 16:32:00,78.8,63.3,29.97,NNE,33,11.0,21.1,59,-99.99,,,-99.99,PyWeather,2013-08-08 14:32:00,
2013-08-08 16:42:00,78.4,63.0,29.97,NNE,31,11.0,22.9,59,-99.99,,,-99.99,PyWeather,2013-08-08 14:42:00,
2013-08-08 16:52:00,78.6,63.1,29.97,NNE,21,10.1,22.9,59,-99.99,,,-99.99,PyWeather,2013-08-08 14:52:00,
2013-08-08 17:02:00,77.9,63.0,29.98,NE,38,11.4,18.0,60,-99.99,,,-99.99,PyWeather,2013-08-08 15:02:00,
2013-08-08 17:12:00,78.6,63.1,29.97,NNE,28,10.3,20.0,59,-99.99,,,-99.99,PyWeather,2013-08-08 15:12:00,
2013-08-08 17:21:00,78.4,62.4,29.98,NNE,19,10.1,20.0,58,-99.99,,,-99.99,PyWeather,2013-08-08 15:21:00,
2013-08-08 17:31:00,78.1,62.6,29.98,NNE,25,12.1,24.9,59,-99.99,,,-99.99,PyWeather,2013-08-08 15:31:00,
2013-08-08 17:41:00,77.5,62.6,29.98,NNE,33,10.8,20.0,60,-99.99,,,-99.99,PyWeather,2013-08-08 15:41:00,
2013-08-08 17:51:00,77.4,62.4,29.99,NNE,28,11.2,22.0,60,-99.99,,,-99.99,PyWeather,2013-08-08 15:51:00,
2013-08-08 18:01:00,77.2,62.2,29.99,NNE,26,10.8,17.1,60,-99.99,,,-99.99,PyWeather,2013-08-08 16:01:00,
2013-08-08 18:11:00,76.6,61.7,29.99,NNE,31,11.7,19.1,60,-99.99,,,-99.99,PyWeather,2013-08-08 16:11:00,
2013-08-08 18:20:00,76.3,61.3,30.00,NNE,20,9.0,17.1,60,-99.99,,,-99.99,PyWeather,2013-08-08 16:20:00,
2013-08-08 18:30:00,76.6,62.2,30.00,NNE,12,8.3,15.0,61,-99.99,,,-99.99,PyWeather,2013-08-08 16:30:00,
2013-08-08 18:40:00,76.6,61.7,30.00,NNE,22,11.2,18.0,60,-99.99,,,-99.99,PyWeather,2013-08-08 16:40:00,
2013-08-08 18:50:00,76.6,61.2,30.00,NNE,18,8.8,15.0,59,-99.99,,,-99.99,PyWeather,2013-08-08 16:50:00,
2013-08-08 19:00:00,76.3,61.0,30.01,NNE,32,9.9,18.0,59,-99.99,,,-99.99,PyWeather,2013-08-08 17:00:00,
2013-08-08 19:09:00,76.6,61.7,30.01,NNE,22,8.1,15.0,60,-99.99,,,-99.99,PyWeather,2013-08-08 17:09:00,
2013-08-08 19:19:00,76.1,61.2,30.01,NE,39,8.3,15.9,60,-99.99,,,-99.99,PyWeather,2013-08-08 17:19:00,
2013-08-08 19:29:00,76.5,61.0,30.01,NNE,29,8.8,15.9,59,-99.99,,,-99.99,PyWeather,2013-08-08 17:29:00,
2013-08-08 19:39:00,76.3,61.0,30.01,NNE,27,9.2,15.9,59,-99.99,,,-99.99,PyWeather,2013-08-08 17:39:00,
2013-08-08 19:49:00,75.9,60.6,30.01,NNE,22,8.1,15.0,59,-99.99,,,-99.99,PyWeather,2013-08-08 17:49:00,
2013-08-08 19:58:00,75.7,60.8,30.02,NNE,16,9.0,15.9,60,-99.99,,,-99.99,PyWeather,2013-08-08 17:58:00,
2013-08-08 20:08:00,75.4,61.0,30.02,NNE,27,7.6,15.0,61,-99.99,,,-99.99,PyWeather,2013-08-08 18:08:00,
2013-08-08 20:18:00,75.6,60.6,30.03,NNE,29,4.7,11.0,60,-99.99,,,-99.99,PyWeather,2013-08-08 18:18:00,
2013-08-08 20:28:00,75.2,60.8,30.03,NNE,26,7.2,11.0,61,-99.99,,,-99.99,PyWeather,2013-08-08 18:28:00,
2013-08-08 20:38:00,74.7,60.8,30.03,NE,44,8.8,15.0,62,-99.99,,,-99.99,PyWeather,2013-08-08 18:38:00,
2013-08-08 20:47:00,74.3,60.4,30.03,NNE,31,6.5,13.0,62,-99.99,,,-99.99,PyWeather,2013-08-08 18:47:00,
2013-08-08 20:57:00,74.1,60.8,30.03,NNE,29,5.2,10.1,63,-99.99,,,-99.99,PyWeather,2013-08-08 18:57:00,
2013-08-08 21:07:00,73.9,61.0,30.04,NE,39,4.0,10.1,64,-99.99,,,-99.99,PyWeather,2013-08-08 19:07:00,
2013-08-08 21:17:00,73.8,60.4,30.04,NE,40,5.2,9.0,63,-99.99,,,-99.99,PyWeather,2013-08-08 19:17:00,
2013-08-08 21:27:00,73.8,60.4,30.05,NE,44,3.8,7.0,63,-99.99,,,-99.99,PyWeather,2013-08-08 19:27:00,
2013-08-08 21:36:00,73.6,60.3,30.06,NE,45,3.8,8.1,63,-99.99,,,-99.99,PyWeather,2013-08-08 19:36:00,
2013-08-08 21:46:00,73.4,59.5,30.06,NNE,31,5.4,10.1,62,-99.99,,,-99.99,PyWeather,2013-08-08 19:46:00,
2013-08-08 21:56:00,73.2,59.4,30.06,NNE,30,4.9,9.0,62,-99.99,,,-99.99,PyWeather,2013-08-08 19:56:00,
2013-08-08 22:06:00,73.2,59.0,30.07,NNE,20,4.5,7.0,61,-99.99,,,-99.99,PyWeather,2013-08-08 20:06:00,
2013-08-08 22:16:00,73.0,58.8,30.07,NNE,30,2.5,4.9,61,-99.99,,,-99.99,PyWeather,2013-08-08 20:16:00,
2013-08-08 22:26:00,73.0,58.8,30.07,NNE,17,2.9,6.1,61,-99.99,,,-99.99,PyWeather,2013-08-08 20:26:00,
2013-08-08 22:35:00,72.9,58.6,30.08,NE,36,3.1,6.1,61,-99.99,,,-99.99,PyWeather,2013-08-08 20:35:00,
2013-08-08 22:45:00,72.9,58.6,30.08,NNE,29,3.8,7.0,61,-99.99,,,-99.99,PyWeather,2013-08-08 20:45:00,
2013-08-08 22:55:00,72.9,59.0,30.08,NNE,31,2.7,4.9,62,-99.99,,,-99.99,PyWeather,2013-08-08 20:55:00,
2013-08-08 23:05:00,72.9,59.5,30.09,NE,35,1.1,4.9,63,-99.99,,,-99.99,PyWeather,2013-08-08 21:05:00,
2013-08-08 23:15:00,72.7,59.7,30.09,NNE,33,2.2,4.9,64,-99.99,,,-99.99,PyWeather,2013-08-08 21:15:00,
2013-08-08 23:24:00,72.5,59.5,30.09,NNE,25,2.0,4.0,64,-99.99,,,-99.99,PyWeather,2013-08-08 21:24:00,
2013-08-08 23:34:00,72.3,59.9,30.08,NNE,25,2.2,4.0,65,-99.99,,,-99.99,PyWeather,2013-08-08 21:34:00,
2013-08-08 23:44:00,72.3,59.9,30.09,NNE,25,1.3,4.0,65,-99.99,,,-99.99,PyWeather,2013-08-08 21:44:00,
2013-08-08 23:54:00,72.3,59.5,30.08,NNE,26,2.7,4.0,64,-99.99,,,-99.99,PyWeather,2013-08-08 21:54:00,